Terminal Aerodrome Forecast
Issued by NWS

Home | Current Version | Previous Version | Text Only | Print | Product List | Glossary On
Versions: 1 2 3 4 5 6 7 8 9 10 11 12 13 14 15 16 17 18 19
000
FTUS43 KMPX 031602 AAC
TAFAXN
TAF AMD
KAXN 031602Z 0316/0412 13012KT P6SM BKN004 OVC010
     FM031700 12012KT P6SM BKN015
     FM031730 12014KT P6SM SCT015
     FM040600 12008KT 4SM BR SCT004=

USA.gov is the U.S. government's official web portal to all federal, state and local government web resources and services.